Time;durP1;ratioP1;P1;durP2;ratioP2;P2;SDS_P1;SDS_P2;PMS_P1;PMS_P2;Temp;Humidity;BMP_temperature;BMP_pressure;BME280_temperature;BME280_humidity;BME280_pressure;Samples;Min_cycle;Max_cycle;Signal;HPM_P1;HPM_P2
2022/05/28 00:01:49;;;;;;;3.60;1.50;;;16.70;45.10;;;;;;5040121;28;20415;-72
2022/05/28 00:04:15;;;;;;;2.88;1.42;;;16.60;45.00;;;;;;5034593;28;20025;-73
2022/05/28 00:06:41;;;;;;;3.05;1.02;;;16.60;45.20;;;;;;5044590;28;20051;-71
2022/05/28 00:09:07;;;;;;;4.97;1.33;;;16.50;45.10;;;;;;5033800;28;20056;-71
2022/05/28 00:11:36;;;;;;;4.35;1.80;;;16.50;45.20;;;;;;5044648;28;20387;-74
2022/05/28 00:14:04;;;;;;;3.78;1.23;;;16.40;45.20;;;;;;5025905;28;20026;-71
2022/05/28 00:16:30;;;;;;;11.52;2.28;;;16.40;45.30;;;;;;5040811;28;20033;-71
2022/05/28 00:18:56;;;;;;;3.00;1.15;;;16.30;45.20;;;;;;5028269;28;20040;-72
2022/05/28 00:21:24;;;;;;;2.05;1.10;;;16.30;45.30;;;;;;5026711;28;20136;-72
2022/05/28 00:23:51;;;;;;;3.20;1.02;;;16.20;45.30;;;;;;5030940;28;20056;-72
2022/05/28 00:26:17;;;;;;;3.30;1.25;;;16.20;45.40;;;;;;5038894;28;20067;-71
2022/05/28 00:28:43;;;;;;;3.70;1.20;;;16.10;45.30;;;;;;5034110;28;20166;-72
2022/05/28 00:31:10;;;;;;;3.13;1.35;;;16.10;45.40;;;;;;5033506;28;20060;-74
2022/05/28 00:33:36;;;;;;;3.22;1.13;;;16.00;45.40;;;;;;5035557;28;20029;-72
2022/05/28 00:36:05;;;;;;;2.28;1.08;;;15.90;45.30;;;;;;5041341;28;20071;-73
2022/05/28 00:38:31;;;;;;;5.60;1.50;;;15.90;45.40;;;;;;5034402;28;20028;-72
2022/05/28 00:40:59;;;;;;;2.83;1.55;;;15.90;45.60;;;;;;5045727;28;20135;-75
2022/05/28 00:43:27;;;;;;;2.67;1.55;;;15.80;45.40;;;;;;5037365;28;20035;-74
2022/05/28 00:46:16;;;;;;;3.90;1.30;;;15.80;45.60;;;;;;5043799;28;20037;-71
2022/05/28 00:48:44;;;;;;;2.63;1.20;;;15.80;45.70;;;;;;5041421;28;20374;-73
2022/05/28 00:51:20;;;;;;;3.47;1.20;;;15.70;45.60;;;;;;5042663;28;20036;-71
2022/05/28 00:53:46;;;;;;;2.55;1.05;;;15.60;45.60;;;;;;5035715;28;20040;-72
2022/05/28 00:56:12;;;;;;;3.10;1.08;;;15.60;45.60;;;;;;5047683;28;20069;-72
2022/05/28 00:58:38;;;;;;;2.75;1.13;;;15.60;45.70;;;;;;5032129;28;20077;-73
2022/05/28 01:01:06;;;;;;;3.80;1.88;;;15.50;45.60;;;;;;5031611;28;20584;-72
2022/05/28 01:04:00;;;;;;;2.50;1.38;;;15.50;45.80;;;;;;5039057;28;20048;-73
2022/05/28 01:06:35;;;;;;;3.80;1.02;;;15.40;45.80;;;;;;5046205;28;20102;-72
2022/05/28 01:09:11;;;;;;;2.13;1.08;;;15.30;45.60;;;;;;5034556;28;20495;-73
2022/05/28 01:12:00;;;;;;;3.97;1.23;;;15.30;45.70;;;;;;5034981;28;20044;-73
2022/05/28 01:14:58;;;;;;;4.47;1.42;;;15.30;45.80;;;;;;5039764;28;20052;-73
2022/05/28 01:17:43;;;;;;;5.30;1.80;;;15.20;45.80;;;;;;5039181;28;20071;-73
2022/05/28 01:20:20;;;;;;;3.80;0.95;;;15.20;45.90;;;;;;5044448;28;20028;-74
2022/05/28 01:23:24;;;;;;;4.60;1.80;;;15.10;45.80;;;;;;5045992;28;20080;-73
2022/05/28 01:25:59;;;;;;;5.10;2.13;;;15.10;46.00;;;;;;5044523;28;20602;-74
2022/05/28 01:28:39;;;;;;;2.70;1.20;;;15.10;46.00;;;;;;5040803;28;20030;-72
2022/05/28 01:31:06;;;;;;;3.53;1.10;;;15.00;45.90;;;;;;5033271;28;20074;-73
2022/05/28 01:33:35;;;;;;;2.65;1.40;;;15.00;45.90;;;;;;5039983;28;20041;-73
2022/05/28 01:36:05;;;;;;;5.00;1.13;;;14.90;45.80;;;;;;5044451;28;20029;-74
2022/05/28 01:38:34;;;;;;;2.97;1.42;;;14.90;46.00;;;;;;5044397;28;20207;-72
2022/05/28 01:41:01;;;;;;;1.58;0.93;;;14.90;46.10;;;;;;5039664;28;20057;-72
2022/05/28 01:43:28;;;;;;;2.45;1.20;;;14.80;46.00;;;;;;5028398;28;20063;-72
2022/05/28 01:45:55;;;;;;;5.03;1.65;;;14.80;46.10;;;;;;5056324;22;20040;-78
2022/05/28 01:48:23;;;;;;;2.92;1.35;;;14.80;46.20;;;;;;5024153;28;20043;-78
2022/05/28 01:50:53;;;;;;;5.13;1.88;;;14.70;46.10;;;;;;5023250;28;20033;-78
2022/05/28 01:56:06;;;;;;;2.25;0.98;;;14.60;46.10;;;;;;5013272;28;20025;-78
2022/05/28 01:58:33;;;;;;;3.25;0.93;;;14.60;46.20;;;;;;5025921;28;20311;-77
2022/05/28 02:01:00;;;;;;;3.45;1.42;;;14.50;46.10;;;;;;5024765;28;20044;-77
2022/05/28 02:03:31;;;;;;;1.27;0.80;;;14.50;46.20;;;;;;5026609;28;20057;-77
2022/05/28 02:05:57;;;;;;;2.45;1.02;;;14.40;46.10;;;;;;5019054;28;20030;-77
2022/05/28 02:08:23;;;;;;;3.35;1.10;;;14.40;46.20;;;;;;5021707;28;20033;-78
2022/05/28 02:11:09;;;;;;;2.08;1.10;;;14.40;46.40;;;;;;5026272;28;20021;-77
2022/05/28 02:14:11;;;;;;;4.22;1.77;;;14.30;46.30;;;;;;5026850;28;20037;-77
2022/05/28 02:16:48;;;;;;;3.83;1.08;;;14.30;46.40;;;;;;5022003;28;20397;-77
2022/05/28 02:19:41;;;;;;;4.00;0.90;;;14.20;46.20;;;;;;5025352;28;20072;-76
2022/05/28 02:22:21;;;;;;;2.10;0.85;;;14.20;46.30;;;;;;5022736;28;20053;-77
2022/05/28 02:24:56;;;;;;;1.38;0.88;;;14.10;46.20;;;;;;5041017;28;20133;-77
2022/05/28 02:27:24;;;;;;;3.05;1.67;;;14.10;46.30;;;;;;5033962;28;20092;-78
2022/05/28 02:29:51;;;;;;;5.05;0.80;;;14.10;46.40;;;;;;5039488;28;20655;-77
2022/05/28 02:32:24;;;;;;;5.28;1.67;;;14.00;46.30;;;;;;5028676;28;20331;-77
2022/05/28 02:34:50;;;;;;;1.33;0.82;;;13.90;46.30;;;;;;5021560;28;20033;-77
2022/05/28 02:37:20;;;;;;;5.30;1.83;;;13.90;46.40;;;;;;5030438;28;20061;-76
2022/05/28 02:39:46;;;;;;;2.95;1.10;;;13.90;46.50;;;;;;5044439;28;20066;-77
2022/05/28 02:42:12;;;;;;;3.28;0.93;;;13.90;46.60;;;;;;5044325;28;20049;-76
2022/05/28 02:44:38;;;;;;;3.05;0.98;;;13.90;46.70;;;;;;5039801;28;20037;-76
2022/05/28 02:47:04;;;;;;;3.88;1.00;;;13.80;46.60;;;;;;5030400;28;20056;-77
2022/05/28 02:49:30;;;;;;;2.42;0.90;;;13.80;46.60;;;;;;5048732;28;20052;-77
2022/05/28 02:51:59;;;;;;;4.25;1.27;;;13.70;46.50;;;;;;5043307;28;20449;-76
2022/05/28 02:54:25;;;;;;;1.83;0.90;;;13.70;46.70;;;;;;5048982;28;20397;-76
2022/05/28 02:56:51;;;;;;;1.77;1.00;;;13.70;46.70;;;;;;5048048;28;20033;-76
2022/05/28 02:59:16;;;;;;;1.77;1.00;;;13.60;46.60;;;;;;5045208;28;20032;-77
2022/05/28 03:01:42;;;;;;;2.47;1.20;;;13.60;46.70;;;;;;5047751;28;20098;-78
2022/05/28 03:04:09;;;;;;;1.85;1.20;;;13.60;46.90;;;;;;5047990;28;20108;-78
2022/05/28 03:06:35;;;;;;;1.85;1.00;;;13.50;46.70;;;;;;5029863;28;20133;-77
2022/05/28 03:09:03;;;;;;;1.67;0.90;;;13.50;46.90;;;;;;5047141;28;20112;-77
2022/05/28 03:11:28;;;;;;;3.03;0.88;;;13.50;47.00;;;;;;5031607;28;20036;-77
2022/05/28 03:13:54;;;;;;;1.85;0.88;;;13.40;46.80;;;;;;5050014;28;20036;-77
2022/05/28 03:16:20;;;;;;;2.50;0.93;;;13.40;46.90;;;;;;5050405;28;20188;-77
2022/05/28 03:18:46;;;;;;;1.58;0.70;;;13.40;47.00;;;;;;5039791;28;20394;-76
2022/05/28 03:21:12;;;;;;;2.13;1.05;;;13.40;47.10;;;;;;5052220;28;20090;-76
2022/05/28 03:23:38;;;;;;;3.58;1.00;;;13.30;46.90;;;;;;5051715;28;20039;-75
2022/05/28 03:26:15;;;;;;;4.57;1.00;;;13.30;47.00;;;;;;5046163;28;20105;-76
2022/05/28 03:28:41;;;;;;;4.75;1.20;;;13.20;47.00;;;;;;5050032;28;20043;-75
2022/05/28 03:31:07;;;;;;;4.32;1.27;;;13.20;47.00;;;;;;5050812;28;20021;-76
2022/05/28 03:33:33;;;;;;;4.50;1.00;;;13.20;47.10;;;;;;5047447;28;20033;-76
2022/05/28 03:35:59;;;;;;;4.18;0.90;;;13.20;47.10;;;;;;5044055;28;20082;-76
2022/05/28 03:38:25;;;;;;;1.40;0.70;;;13.10;47.10;;;;;;5049465;28;20127;-76
2022/05/28 03:40:51;;;;;;;4.93;1.63;;;13.10;47.10;;;;;;5048733;28;20128;-76
2022/05/28 03:43:16;;;;;;;3.47;1.38;;;13.10;47.30;;;;;;5050325;28;20112;-76
2022/05/28 03:45:42;;;;;;;3.55;1.20;;;13.10;47.30;;;;;;5049678;28;20025;-76
2022/05/28 03:48:11;;;;;;;1.95;1.00;;;13.00;47.10;;;;;;5049507;28;20076;-76
2022/05/28 03:50:37;;;;;;;3.17;1.73;;;13.00;47.20;;;;;;5048630;28;20029;-75
2022/05/28 03:53:03;;;;;;;2.75;1.15;;;13.00;47.30;;;;;;5048830;28;20033;-76
2022/05/28 03:55:29;;;;;;;3.47;1.52;;;13.00;47.30;;;;;;5046564;28;20064;-76
2022/05/28 03:57:55;;;;;;;2.17;0.75;;;12.90;47.20;;;;;;5047426;28;20036;-76
2022/05/28 04:00:22;;;;;;;1.95;0.95;;;12.90;47.30;;;;;;5047206;28;20037;-76
2022/05/28 04:02:48;;;;;;;1.55;0.95;;;12.90;47.30;;;;;;5048695;28;20077;-76
2022/05/28 04:05:13;;;;;;;3.65;1.27;;;12.90;47.40;;;;;;5036801;28;20033;-76
2022/05/28 04:07:40;;;;;;;3.88;0.98;;;12.90;47.50;;;;;;5043240;28;20128;-76
2022/05/28 04:10:07;;;;;;;3.25;1.10;;;12.80;47.30;;;;;;5037007;28;20108;-76
2022/05/28 04:12:33;;;;;;;3.25;1.05;;;12.80;47.40;;;;;;5040334;28;20036;-76
2022/05/28 04:14:59;;;;;;;2.20;0.93;;;12.80;47.40;;;;;;5048120;28;20017;-76
2022/05/28 04:17:25;;;;;;;2.20;0.77;;;12.70;47.30;;;;;;5041780;28;20036;-76
2022/05/28 04:19:51;;;;;;;2.42;1.00;;;12.70;47.40;;;;;;5047938;28;20094;-76
2022/05/28 04:22:17;;;;;;;2.75;1.33;;;12.70;47.40;;;;;;5039239;28;20401;-79
2022/05/28 04:24:43;;;;;;;3.20;1.25;;;12.70;47.50;;;;;;5042473;28;20071;-76
2022/05/28 04:27:09;;;;;;;2.42;1.10;;;12.60;47.40;;;;;;5039898;28;20041;-76
2022/05/28 04:29:35;;;;;;;3.10;1.70;;;12.60;47.40;;;;;;5043460;28;20029;-76
2022/05/28 04:32:01;;;;;;;1.75;0.70;;;12.60;47.50;;;;;;5042335;28;20495;-78
2022/05/28 04:34:27;;;;;;;3.03;1.15;;;12.60;47.60;;;;;;5042346;28;20487;-77
2022/05/28 04:36:52;;;;;;;3.13;1.27;;;12.60;47.60;;;;;;5040000;28;20036;-77
2022/05/28 04:39:18;;;;;;;3.15;0.98;;;12.60;47.70;;;;;;5046750;28;20025;-77
2022/05/28 04:41:44;;;;;;;3.15;1.15;;;12.60;47.80;;;;;;5024497;28;20401;-79
2022/05/28 04:44:10;;;;;;;2.80;0.98;;;12.50;47.60;;;;;;5045621;28;20052;-79
2022/05/28 04:46:36;;;;;;;2.13;1.05;;;12.50;47.60;;;;;;5046256;28;20456;-78
2022/05/28 04:49:02;;;;;;;1.70;1.00;;;12.50;47.60;;;;;;5036815;28;20488;-78
2022/05/28 04:51:27;;;;;;;1.80;1.05;;;12.50;47.60;;;;;;5035473;28;20037;-78
2022/05/28 04:53:53;;;;;;;2.03;1.00;;;12.50;47.70;;;;;;5035568;28;20028;-77
2022/05/28 04:56:19;;;;;;;1.67;0.90;;;12.50;47.70;;;;;;5037661;28;20520;-77
2022/05/28 04:58:45;;;;;;;3.00;1.25;;;12.50;47.70;;;;;;5028082;28;20025;-76
2022/05/28 05:01:13;;;;;;;4.88;1.20;;;12.50;47.80;;;;;;5044729;28;20120;-77
2022/05/28 05:03:40;;;;;;;1.40;0.70;;;12.50;47.80;;;;;;5045437;28;20368;-77
2022/05/28 05:06:06;;;;;;;2.65;1.45;;;12.50;47.80;;;;;;5032110;28;20481;-79
2022/05/28 05:08:32;;;;;;;1.70;1.00;;;12.60;47.90;;;;;;5038015;28;20047;-79
2022/05/28 05:10:58;;;;;;;3.13;1.10;;;12.50;47.70;;;;;;5045876;28;20029;-77
2022/05/28 05:13:24;;;;;;;2.80;0.80;;;12.60;47.90;;;;;;5038937;28;20029;-80
2022/05/28 05:15:50;;;;;;;4.75;1.17;;;12.60;47.90;;;;;;5028540;28;20040;-76
2022/05/28 05:18:16;;;;;;;2.65;1.10;;;12.60;47.90;;;;;;5046288;28;20037;-76
2022/05/28 05:20:42;;;;;;;2.63;1.15;;;12.60;47.90;;;;;;5037979;28;20029;-76
2022/05/28 05:23:08;;;;;;;5.22;1.13;;;12.70;48.10;;;;;;5038598;28;20102;-74
2022/05/28 05:25:34;;;;;;;1.98;1.05;;;12.60;48.00;;;;;;5037146;28;20037;-75
2022/05/28 05:28:00;;;;;;;3.42;1.48;;;12.70;48.70;;;;;;5040345;28;20284;-79
2022/05/28 05:30:26;;;;;;;2.53;1.02;;;12.60;48.00;;;;;;5039942;28;20047;-77
2022/05/28 05:32:52;;;;;;;2.20;1.25;;;12.70;48.20;;;;;;5039691;28;20083;-76
2022/05/28 05:35:18;;;;;;;2.17;0.90;;;12.70;48.20;;;;;;5037231;28;20041;-76
2022/05/28 05:37:44;;;;;;;2.53;0.88;;;12.70;48.30;;;;;;5039083;28;20665;-77
2022/05/28 05:40:11;;;;;;;4.75;1.38;;;12.70;48.30;;;;;;5029876;28;20463;-76
2022/05/28 05:42:37;;;;;;;2.58;1.30;;;12.80;48.50;;;;;;5035257;28;20139;-76
2022/05/28 05:45:03;;;;;;;2.15;1.17;;;12.80;48.50;;;;;;5031650;28;20203;-76
2022/05/28 05:47:29;;;;;;;4.32;1.02;;;12.80;48.50;;;;;;5018714;28;20597;-76
2022/05/28 05:49:55;;;;;;;2.15;1.00;;;12.90;48.70;;;;;;5028968;28;20116;-76
2022/05/28 05:52:21;;;;;;;2.97;1.23;;;13.00;48.80;;;;;;5048038;28;20040;-77
2022/05/28 05:54:47;;;;;;;3.92;1.13;;;13.00;48.80;;;;;;5039778;28;20032;-78
2022/05/28 05:57:13;;;;;;;5.07;1.08;;;13.10;49.10;;;;;;5046170;28;20035;-77
2022/05/28 05:59:39;;;;;;;3.30;1.10;;;13.20;49.90;;;;;;5043649;28;20021;-83
2022/05/28 06:02:05;;;;;;;3.13;1.15;;;13.40;51.40;;;;;;5040992;28;20048;-78
2022/05/28 06:04:30;;;;;;;4.13;0.90;;;13.60;52.50;;;;;;5062445;28;20055;-77
2022/05/28 06:06:56;;;;;;;2.50;0.75;;;14.00;53.70;;;;;;5062456;28;20026;-77
2022/05/28 06:09:22;;;;;;;4.15;1.05;;;14.20;53.90;;;;;;5061274;28;20025;-77
2022/05/28 06:11:48;;;;;;;3.47;1.58;;;14.40;54.00;;;;;;5032044;28;20037;-77
2022/05/28 06:14:14;;;;;;;2.30;1.00;;;14.60;54.10;;;;;;5044268;28;20032;-77
2022/05/28 06:16:40;;;;;;;2.53;0.95;;;14.80;54.20;;;;;;5034600;28;20879;-77
2022/05/28 06:19:08;;;;;;;3.08;1.33;;;15.00;54.20;;;;;;5033588;28;20029;-79
2022/05/28 06:21:34;;;;;;;3.53;1.50;;;15.20;54.20;;;;;;5034689;28;20041;-79
2022/05/28 06:24:01;;;;;;;3.63;1.10;;;15.40;54.20;;;;;;5035561;28;20033;-77
2022/05/28 06:26:28;;;;;;;4.32;1.67;;;15.60;54.10;;;;;;5038103;28;20033;-79
2022/05/28 06:28:54;;;;;;;3.08;1.40;;;16.10;54.40;;;;;;5038736;28;20079;-80
2022/05/28 06:31:20;;;;;;;4.03;1.25;;;16.80;54.30;;;;;;5033226;28;20087;-77
2022/05/28 06:33:46;;;;;;;7.00;2.10;;;17.50;53.80;;;;;;5036322;28;20033;-77
2022/05/28 06:36:13;;;;;;;4.68;1.92;;;18.20;53.20;;;;;;5031668;28;20025;-77
2022/05/28 06:38:39;;;;;;;4.43;1.95;;;18.80;52.70;;;;;;5026404;28;20025;-80
2022/05/28 06:41:06;;;;;;;5.53;2.00;;;19.40;52.20;;;;;;5030925;28;20347;-80
2022/05/28 06:43:33;;;;;;;4.50;1.90;;;20.00;51.90;;;;;;5042167;28;20037;-78
2022/05/28 06:46:07;;;;;;;5.75;1.45;;;20.70;51.80;;;;;;5038969;28;20044;-78
2022/05/28 06:48:33;;;;;;;5.40;1.38;;;21.20;51.30;;;;;;5037560;28;20116;-78
2022/05/28 06:51:01;;;;;;;3.40;1.63;;;21.80;51.30;;;;;;5019967;28;20194;-75
2022/05/28 06:53:32;;;;;;;3.22;1.65;;;22.30;51.00;;;;;;5040237;28;20048;-75
2022/05/28 06:55:58;;;;;;;6.15;2.03;;;22.80;50.80;;;;;;5033992;28;20021;-79
2022/05/28 06:58:24;;;;;;;2.90;1.20;;;23.40;50.80;;;;;;5041109;28;20029;-75
2022/05/28 07:00:50;;;;;;;2.67;1.70;;;23.80;50.50;;;;;;5043458;28;20079;-77
2022/05/28 07:03:19;;;;;;;3.15;1.45;;;24.30;50.50;;;;;;5035293;28;20603;-76
2022/05/28 07:05:45;;;;;;;6.97;1.83;;;24.80;50.30;;;;;;5040137;28;20029;-76
2022/05/28 07:08:12;;;;;;;3.63;1.75;;;25.20;49.80;;;;;;5037992;28;20237;-76
2022/05/28 07:10:43;;;;;;;4.15;1.52;;;25.60;49.10;;;;;;5038499;28;20040;-76
2022/05/28 07:13:10;;;;;;;3.65;1.13;;;26.10;48.40;;;;;;5018216;28;20495;-76
2022/05/28 07:15:37;;;;;;;5.32;1.73;;;26.40;47.70;;;;;;5038783;28;20025;-76
2022/05/28 07:18:03;;;;;;;3.75;1.42;;;26.90;47.40;;;;;;5042585;28;20040;-78
2022/05/28 07:20:29;;;;;;;3.78;1.40;;;27.50;46.00;;;;;;5044467;28;20032;-75
2022/05/28 07:22:55;;;;;;;4.35;1.15;;;27.90;45.20;;;;;;5042567;28;20341;-74
2022/05/28 07:25:21;;;;;;;3.35;1.23;;;28.00;44.80;;;;;;5045909;28;20032;-76
2022/05/28 07:27:47;;;;;;;3.55;1.42;;;28.00;44.90;;;;;;5042193;28;20025;-80
2022/05/28 07:30:13;;;;;;;6.00;2.22;;;27.90;45.10;;;;;;5048108;28;20025;-82
2022/05/28 07:32:38;;;;;;;5.55;1.85;;;27.70;45.20;;;;;;5043392;28;20064;-83
2022/05/28 07:35:05;;;;;;;6.97;1.95;;;27.50;44.80;;;;;;5045878;28;20223;-79
2022/05/28 07:37:32;;;;;;;6.50;1.83;;;27.40;44.00;;;;;;5044940;28;20061;-79
2022/05/28 07:39:58;;;;;;;5.53;1.58;;;27.40;43.10;;;;;;5046983;28;20032;-81
2022/05/28 07:42:26;;;;;;;3.75;1.20;;;27.70;42.30;;;;;;5037595;28;20083;-80
2022/05/28 07:44:52;;;;;;;4.53;1.35;;;28.20;41.60;;;;;;5039296;28;20029;-78
2022/05/28 07:47:18;;;;;;;4.93;1.50;;;28.70;40.80;;;;;;5046964;28;20090;-79
2022/05/28 07:49:45;;;;;;;4.47;1.60;;;29.20;40.10;;;;;;5054391;28;20037;-79
2022/05/28 07:52:10;;;;;;;4.47;1.63;;;29.70;39.50;;;;;;5045813;28;20044;-78
2022/05/28 07:54:36;;;;;;;5.80;2.03;;;30.00;39.00;;;;;;5048028;28;20562;-94
2022/05/28 07:57:04;;;;;;;4.35;2.03;;;30.10;38.80;;;;;;5047522;28;20033;-93
2022/05/28 07:59:30;;;;;;;5.18;2.25;;;30.10;38.90;;;;;;5029484;28;20183;-93
2022/05/28 08:01:56;;;;;;;4.95;2.47;;;29.90;39.80;;;;;;5053088;28;20544;-95
2022/05/28 08:04:22;;;;;;;6.28;2.17;;;29.70;39.40;;;;;;5038392;28;20037;-90
2022/05/28 08:06:48;;;;;;;7.70;2.33;;;29.50;39.90;;;;;;5048442;28;20056;-94
2022/05/28 08:09:14;;;;;;;5.55;2.60;;;29.30;40.30;;;;;;5053396;28;20037;-93
2022/05/28 08:11:40;;;;;;;5.72;1.77;;;29.00;40.50;;;;;;5047584;28;20496;-91
2022/05/28 08:14:06;;;;;;;5.57;2.25;;;28.70;40.80;;;;;;5044154;28;20021;-93
2022/05/28 08:16:33;;;;;;;5.32;2.10;;;28.40;41.20;;;;;;5028275;28;20037;-87
2022/05/28 08:18:59;;;;;;;4.25;2.20;;;28.20;41.30;;;;;;5042829;28;20030;-88
2022/05/28 08:24:09;;;;;;;4.10;1.67;;;27.70;41.40;;;;;;5044134;28;20021;-79
2022/05/28 08:26:36;;;;;;;6.13;2.05;;;27.50;41.50;;;;;;5045312;28;20044;-78
2022/05/28 08:29:02;;;;;;;6.53;2.17;;;27.20;41.50;;;;;;5043107;28;20396;-78
2022/05/28 08:31:29;;;;;;;4.45;1.63;;;27.10;41.60;;;;;;5025788;28;20519;-79
2022/05/28 08:33:56;;;;;;;4.88;1.73;;;27.00;41.60;;;;;;5056577;28;20082;-79
2022/05/28 08:36:22;;;;;;;5.13;1.50;;;27.00;41.60;;;;;;5046099;28;20033;-83
2022/05/28 08:38:49;;;;;;;4.43;1.60;;;26.90;41.50;;;;;;5037352;28;20037;-82
2022/05/28 08:41:22;;;;;;;5.50;1.75;;;26.80;41.40;;;;;;5043163;28;20063;-80
2022/05/28 08:43:51;;;;;;;3.40;1.35;;;26.70;41.40;;;;;;5041235;28;20491;-81
2022/05/28 08:46:18;;;;;;;3.47;1.48;;;26.60;41.40;;;;;;5041704;28;20048;-81
2022/05/28 08:48:48;;;;;;;4.28;1.45;;;26.60;41.60;;;;;;5041084;28;20060;-85
2022/05/28 08:51:37;;;;;;;4.30;1.77;;;26.60;41.40;;;;;;5028798;28;20013;-82
2022/05/28 08:54:09;;;;;;;5.07;1.55;;;26.60;41.30;;;;;;5051346;28;20121;-82
2022/05/28 08:56:37;;;;;;;8.23;2.75;;;26.50;41.20;;;;;;5042636;28;20033;-90
2022/05/28 08:59:18;;;;;;;4.72;1.20;;;26.40;41.30;;;;;;5035697;28;20100;-90
2022/05/28 09:01:45;;;;;;;4.90;1.33;;;26.20;41.30;;;;;;5028611;28;20102;-83
2022/05/28 09:04:23;;;;;;;5.22;1.50;;;25.90;41.50;;;;;;5039568;28;20102;-83
2022/05/28 09:06:53;;;;;;;5.30;1.75;;;25.80;41.60;;;;;;5043051;28;20329;-82
2022/05/28 09:09:29;;;;;;;4.72;1.35;;;25.70;41.80;;;;;;5035191;28;20064;-86
2022/05/28 09:12:02;;;;;;;3.55;0.90;;;25.80;41.60;;;;;;5026481;28;20017;-84
2022/05/28 09:14:33;;;;;;;;;;;25.90;41.40;;;;;;5029206;28;20033;-81
2022/05/28 09:17:20;;;;;;;3.97;1.30;;;26.00;41.40;;;;;;5042521;28;19918;-83
2022/05/28 09:19:48;;;;;;;5.35;1.50;;;26.20;41.20;;;;;;5036562;28;20036;-78
2022/05/28 09:22:15;;;;;;;2.15;1.00;;;26.50;41.10;;;;;;5032573;28;20045;-77
2022/05/28 09:24:42;;;;;;;2.10;1.10;;;26.70;40.80;;;;;;5039452;28;20132;-77
2022/05/28 09:27:34;;;;;;;4.57;1.17;;;26.90;40.60;;;;;;5028936;28;20025;-77
2022/05/28 09:30:21;;;;;;;2.85;1.10;;;27.20;40.10;;;;;;5030842;28;20832;-75
2022/05/28 09:33:19;;;;;;;4.63;1.40;;;27.30;40.20;;;;;;5040178;28;20120;-74
2022/05/28 09:36:07;;;;;;;3.13;1.17;;;27.50;40.10;;;;;;4985059;28;20040;-75
2022/05/28 09:39:12;;;;;;;5.40;1.13;;;27.60;40.00;;;;;;5035788;28;20123;-75
2022/05/28 09:42:24;;;;;;;5.40;1.10;;;27.70;39.70;;;;;;5037461;28;20055;-75
2022/05/28 09:45:12;;;;;;;2.95;1.13;;;27.90;40.30;;;;;;5021173;28;20523;-74
2022/05/28 09:47:46;;;;;;;6.40;1.50;;;27.90;39.80;;;;;;5036060;28;20064;-75
2022/05/28 09:50:40;;;;;;;4.38;2.00;;;27.90;39.80;;;;;;5035095;28;20033;-75
2022/05/28 09:56:21;;;;;;;3.30;1.27;;;28.10;39.80;;;;;;5040363;28;20036;-76
2022/05/28 09:58:47;;;;;;;3.75;1.67;;;28.10;39.40;;;;;;5012121;28;20086;-75
2022/05/28 10:01:25;;;;;;;3.47;1.58;;;28.10;39.60;;;;;;5036950;28;20082;-76
2022/05/28 10:06:51;;;;;;;4.65;2.15;;;28.30;39.30;;;;;;5039708;28;20128;-76
2022/05/28 10:09:28;;;;;;;4.88;2.22;;;28.40;39.20;;;;;;5032288;28;20040;-76
2022/05/28 10:12:14;;;;;;;3.45;1.60;;;28.50;39.10;;;;;;5036698;28;20048;-75
2022/05/28 10:14:40;;;;;;;3.42;2.15;;;28.60;38.90;;;;;;5034057;28;20028;-76
2022/05/28 10:17:06;;;;;;;6.50;1.73;;;28.60;38.90;;;;;;5026427;28;20295;-75
2022/05/28 10:19:43;;;;;;;4.82;1.63;;;28.60;38.90;;;;;;5036652;28;20029;-75
2022/05/28 10:22:17;;;;;;;2.78;1.75;;;28.50;38.70;;;;;;5034488;28;20041;-75
2022/05/28 10:24:57;;;;;;;1.88;1.50;;;28.40;38.70;;;;;;5040293;28;20059;-75
2022/05/28 10:27:54;;;;;;;2.70;1.50;;;28.50;38.80;;;;;;5036186;28;20021;-74
2022/05/28 10:30:34;;;;;;;3.15;1.65;;;28.60;38.70;;;;;;5014242;28;20411;-75
2022/05/28 10:33:12;;;;;;;6.35;2.28;;;28.70;38.70;;;;;;5036353;28;20082;-75
2022/05/28 10:35:38;;;;;;;2.97;1.67;;;28.80;38.60;;;;;;5032403;28;20048;-75
2022/05/28 10:38:15;;;;;;;3.05;1.92;;;29.00;38.60;;;;;;5041328;28;20091;-78
2022/05/28 10:40:56;;;;;;;3.03;1.48;;;29.10;38.40;;;;;;5035025;28;20045;-79
2022/05/28 10:43:31;;;;;;;3.97;1.83;;;29.00;38.30;;;;;;5033047;28;20033;-79
2022/05/28 10:46:09;;;;;;;2.67;1.55;;;28.80;38.40;;;;;;5039042;28;20029;-79
2022/05/28 10:48:55;;;;;;;3.40;1.63;;;28.70;38.50;;;;;;5042081;28;20077;-78
2022/05/28 10:52:02;;;;;;;2.75;1.60;;;28.80;38.40;;;;;;5024185;28;20041;-78
2022/05/28 10:55:01;;;;;;;4.15;1.67;;;28.80;38.70;;;;;;5029162;28;20052;-78
2022/05/28 10:57:49;;;;;;;2.75;1.60;;;28.80;38.40;;;;;;5038554;28;20033;-79
2022/05/28 11:00:17;;;;;;;3.15;1.70;;;29.00;38.50;;;;;;5040738;28;20021;-79
2022/05/28 11:03:04;;;;;;;4.03;1.90;;;29.10;38.50;;;;;;5042190;28;20087;-78
2022/05/28 11:05:32;;;;;;;3.03;1.50;;;29.30;38.30;;;;;;5038906;28;20040;-77
2022/05/28 11:08:36;;;;;;;3.40;1.60;;;29.50;38.30;;;;;;5042070;28;20032;-75
2022/05/28 11:11:26;;;;;;;3.72;1.50;;;29.70;37.70;;;;;;5021308;28;20152;-75
2022/05/28 11:14:34;;;;;;;6.13;1.75;;;30.00;37.60;;;;;;5051544;28;20052;-75
2022/05/28 11:17:26;;;;;;;5.68;1.50;;;29.90;37.30;;;;;;5042167;28;20032;-75
2022/05/28 11:20:00;;;;;;;3.50;1.30;;;29.90;37.30;;;;;;5039192;28;20045;-75
2022/05/28 11:22:32;;;;;;;3.08;1.75;;;30.10;37.30;;;;;;5039642;28;20090;-75
2022/05/28 11:25:05;;;;;;;3.75;0.95;;;30.10;37.10;;;;;;5032678;28;20136;-76
2022/05/28 11:27:37;;;;;;;2.38;1.27;;;30.30;37.00;;;;;;5035279;28;20520;-78
2022/05/28 11:30:15;;;;;;;5.65;2.00;;;30.40;36.70;;;;;;5041437;28;20028;-75
2022/05/28 11:33:11;;;;;;;3.15;1.40;;;30.50;36.70;;;;;;5039092;28;20113;-75
2022/05/28 11:35:48;;;;;;;1.65;1.00;;;30.60;36.30;;;;;;5028094;28;20367;-81
2022/05/28 11:38:16;;;;;;;4.18;1.52;;;30.80;36.40;;;;;;5042656;28;20021;-80
2022/05/28 11:41:03;;;;;;;3.00;2.05;;;30.90;36.40;;;;;;5045433;28;20378;-83
2022/05/28 11:43:40;;;;;;;2.88;1.40;;;31.00;36.10;;;;;;5034323;28;20033;-84
2022/05/28 11:46:30;;;;;;;3.92;1.52;;;31.00;36.10;;;;;;5044677;28;20040;-82
2022/05/28 11:52:33;;;;;;;1.80;1.30;;;31.20;35.80;;;;;;5041643;28;20029;-75
2022/05/28 11:55:13;;;;;;;7.00;1.08;;;31.30;35.30;;;;;;5024137;28;20416;-84
2022/05/28 11:58:16;;;;;;;3.90;1.10;;;31.40;35.10;;;;;;5024750;28;20029;-81
2022/05/28 12:00:48;;;;;;;1.73;0.75;;;31.40;34.20;;;;;;5030875;28;20065;-82
2022/05/28 12:03:16;;;;;;;5.20;0.93;;;31.00;34.40;;;;;;5037296;28;20293;-82
2022/05/28 12:05:52;;;;;;;2.95;1.10;;;30.50;34.10;;;;;;5033971;28;20204;-81
2022/05/28 12:08:41;;;;;;;2.83;1.20;;;29.90;34.00;;;;;;5035720;28;20052;-80
2022/05/28 12:11:21;;;;;;;4.38;0.73;;;29.40;34.30;;;;;;5034391;28;20120;-81
2022/05/28 12:13:54;;;;;;;2.72;1.02;;;29.10;34.10;;;;;;5040998;28;20025;-81
2022/05/28 12:16:42;;;;;;;3.25;1.17;;;29.00;34.20;;;;;;5032558;28;20029;-81
2022/05/28 12:19:11;;;;;;;1.77;0.93;;;28.80;34.10;;;;;;5044124;28;20033;-83
2022/05/28 12:21:39;;;;;;;2.30;1.23;;;28.70;34.20;;;;;;5039491;28;20052;-75
2022/05/28 12:24:14;;;;;;;3.75;1.38;;;28.70;34.30;;;;;;5029006;28;20515;-74
2022/05/28 12:26:47;;;;;;;3.85;1.75;;;28.70;34.50;;;;;;5033878;28;20033;-75
2022/05/28 12:29:39;;;;;;;3.05;1.10;;;29.00;34.60;;;;;;5033676;28;20040;-74
2022/05/28 12:32:13;;;;;;;4.25;1.30;;;29.20;34.30;;;;;;5031426;28;20454;-75
2022/05/28 12:34:50;;;;;;;3.50;1.20;;;29.40;34.40;;;;;;5039404;28;20056;-75
2022/05/28 12:37:21;;;;;;;2.88;0.90;;;29.60;34.30;;;;;;5037763;28;20040;-77
2022/05/28 12:40:25;;;;;;;3.13;0.90;;;29.60;34.40;;;;;;5043521;28;20481;-74
2022/05/28 12:42:53;;;;;;;4.00;1.25;;;29.60;34.30;;;;;;5044383;28;20064;-74
2022/05/28 12:45:38;;;;;;;2.92;1.40;;;29.70;34.50;;;;;;5042321;28;20472;-75
2022/05/28 12:48:14;;;;;;;1.63;0.68;;;30.00;34.20;;;;;;5032811;28;20098;-74
2022/05/28 12:51:10;;;;;;;2.03;0.95;;;30.40;34.00;;;;;;5030818;28;20119;-73
2022/05/28 12:53:52;;;;;;;6.28;1.15;;;30.80;33.60;;;;;;5031141;28;20159;-74
2022/05/28 12:56:43;;;;;;;4.90;1.90;;;31.00;33.20;;;;;;5036659;28;20530;-74
2022/05/28 12:59:27;;;;;;;2.78;1.13;;;31.00;32.50;;;;;;5035139;28;20131;-74
2022/05/28 13:02:11;;;;;;;2.88;1.20;;;31.00;32.70;;;;;;5041102;28;20083;-76
2022/05/28 13:04:46;;;;;;;4.45;1.23;;;30.70;32.20;;;;;;5041021;28;20025;-74
2022/05/28 13:07:27;;;;;;;3.65;1.02;;;30.30;32.20;;;;;;5036624;28;20035;-74
2022/05/28 13:10:27;;;;;;;3.17;0.90;;;29.80;32.30;;;;;;5042914;28;20103;-74
2022/05/28 13:13:40;;;;;;;2.30;0.85;;;29.50;32.40;;;;;;5007253;28;20400;-75
2022/05/28 13:16:34;;;;;;;3.35;1.20;;;29.40;32.40;;;;;;5020999;28;20033;-75
2022/05/28 13:19:41;;;;;;;5.32;1.25;;;29.40;32.40;;;;;;5029484;28;20080;-75
2022/05/28 13:22:20;;;;;;;4.60;1.10;;;29.50;32.30;;;;;;5013677;28;20314;-77
2022/05/28 13:24:55;;;;;;;4.63;1.08;;;29.60;32.30;;;;;;5034997;28;20025;-78
2022/05/28 13:27:43;;;;;;;2.00;1.08;;;29.60;32.30;;;;;;5030939;28;20040;-79
2022/05/28 13:30:17;;;;;;;4.30;1.35;;;29.80;32.00;;;;;;5033660;28;20941;-78